sensor_id;sensor_type;location;lat;lon;timestamp;pressure;altitude;pressure_sealevel;temperature;humidity
48630;BME280;34426;52.180;4.462;2023-04-09T00:00:20;102696.97;;;8.32;86.72
48630;BME280;34426;52.180;4.462;2023-04-09T00:02:47;102694.59;;;8.29;86.18
48630;BME280;34426;52.180;4.462;2023-04-09T00:05:14;102693.06;;;8.26;86.84
48630;BME280;34426;52.180;4.462;2023-04-09T00:07:41;102694.78;;;8.21;87.07
48630;BME280;34426;52.180;4.462;2023-04-09T00:10:09;102699.91;;;8.24;86.65
48630;BME280;34426;52.180;4.462;2023-04-09T00:12:37;102693.94;;;8.20;86.83
48630;BME280;34426;52.180;4.462;2023-04-09T00:15:07;102690.94;;;8.22;86.93
48630;BME280;34426;52.180;4.462;2023-04-09T00:17:34;102696.50;;;8.22;86.54
48630;BME280;34426;52.180;4.462;2023-04-09T00:20:01;102696.28;;;8.17;87.13
48630;BME280;34426;52.180;4.462;2023-04-09T00:22:29;102692.16;;;8.13;87.30
48630;BME280;34426;52.180;4.462;2023-04-09T00:24:56;102691.31;;;8.12;86.93
48630;BME280;34426;52.180;4.462;2023-04-09T00:27:23;102705.03;;;8.14;87.41
48630;BME280;34426;52.180;4.462;2023-04-09T00:29:53;102699.63;;;8.06;87.15
48630;BME280;34426;52.180;4.462;2023-04-09T00:32:22;102700.28;;;8.08;87.72
48630;BME280;34426;52.180;4.462;2023-04-09T00:34:49;102693.41;;;8.04;87.61
48630;BME280;34426;52.180;4.462;2023-04-09T00:37:17;102690.81;;;8.02;87.61
48630;BME280;34426;52.180;4.462;2023-04-09T00:39:44;102686.94;;;7.96;88.03
48630;BME280;34426;52.180;4.462;2023-04-09T00:42:11;102687.19;;;8.01;87.48
48630;BME280;34426;52.180;4.462;2023-04-09T00:44:39;102682.00;;;7.98;87.80
48630;BME280;34426;52.180;4.462;2023-04-09T00:47:06;102691.84;;;7.94;88.16
48630;BME280;34426;52.180;4.462;2023-04-09T00:49:36;102686.28;;;7.94;88.04
48630;BME280;34426;52.180;4.462;2023-04-09T00:52:03;102687.53;;;7.92;88.36
48630;BME280;34426;52.180;4.462;2023-04-09T00:54:31;102691.59;;;7.89;87.91
48630;BME280;34426;52.180;4.462;2023-04-09T00:56:59;102683.44;;;7.88;88.48
48630;BME280;34426;52.180;4.462;2023-04-09T00:59:26;102690.03;;;7.80;88.31
48630;BME280;34426;52.180;4.462;2023-04-09T01:01:54;102685.78;;;7.84;88.32
48630;BME280;34426;52.180;4.462;2023-04-09T01:04:23;102684.72;;;7.85;88.29
48630;BME280;34426;52.180;4.462;2023-04-09T01:06:54;102688.97;;;7.81;88.77
48630;BME280;34426;52.180;4.462;2023-04-09T01:09:27;102676.97;;;7.81;88.47
48630;BME280;34426;52.180;4.462;2023-04-09T01:12:04;102679.94;;;7.73;88.56
48630;BME280;34426;52.180;4.462;2023-04-09T01:14:40;102684.72;;;7.79;88.80
48630;BME280;34426;52.180;4.462;2023-04-09T01:17:17;102680.59;;;7.75;88.47
48630;BME280;34426;52.180;4.462;2023-04-09T01:19:50;102684.00;;;7.70;88.89
48630;BME280;34426;52.180;4.462;2023-04-09T01:22:31;102685.06;;;7.69;88.72
48630;BME280;34426;52.180;4.462;2023-04-09T01:25:13;102676.09;;;7.74;89.12
48630;BME280;34426;52.180;4.462;2023-04-09T01:27:52;102675.19;;;7.66;88.49
48630;BME280;34426;52.180;4.462;2023-04-09T01:30:23;102676.66;;;7.62;88.81
48630;BME280;34426;52.180;4.462;2023-04-09T01:32:52;102686.28;;;7.60;89.24
48630;BME280;34426;52.180;4.462;2023-04-09T01:35:21;102677.72;;;7.61;88.61
48630;BME280;34426;52.180;4.462;2023-04-09T01:37:49;102681.16;;;7.63;88.85
48630;BME280;34426;52.180;4.462;2023-04-09T01:40:17;102680.06;;;7.58;89.08
48630;BME280;34426;52.180;4.462;2023-04-09T01:42:45;102677.28;;;7.58;89.23
48630;BME280;34426;52.180;4.462;2023-04-09T01:45:15;102674.22;;;7.53;89.35
48630;BME280;34426;52.180;4.462;2023-04-09T01:47:45;102676.34;;;7.51;88.77
48630;BME280;34426;52.180;4.462;2023-04-09T01:50:12;102678.53;;;7.55;89.35
48630;BME280;34426;52.180;4.462;2023-04-09T01:52:40;102677.88;;;7.53;89.74
48630;BME280;34426;52.180;4.462;2023-04-09T01:55:08;102668.88;;;7.51;89.30
48630;BME280;34426;52.180;4.462;2023-04-09T01:57:36;102671.19;;;7.48;89.64
48630;BME280;34426;52.180;4.462;2023-04-09T02:00:04;102669.06;;;7.50;89.59
48630;BME280;34426;52.180;4.462;2023-04-09T02:02:36;102675.91;;;7.47;89.27
48630;BME280;34426;52.180;4.462;2023-04-09T02:05:11;102672.91;;;7.49;90.00
48630;BME280;34426;52.180;4.462;2023-04-09T02:07:40;102674.19;;;7.46;89.92
48630;BME280;34426;52.180;4.462;2023-04-09T02:10:09;102673.78;;;7.49;90.03
48630;BME280;34426;52.180;4.462;2023-04-09T02:12:38;102676.75;;;7.48;89.46
48630;BME280;34426;52.180;4.462;2023-04-09T02:15:07;102669.06;;;7.50;89.87
48630;BME280;34426;52.180;4.462;2023-04-09T02:17:35;102660.25;;;7.46;90.07
48630;BME280;34426;52.180;4.462;2023-04-09T02:20:02;102667.75;;;7.46;89.73
48630;BME280;34426;52.180;4.462;2023-04-09T02:22:32;102656.56;;;7.39;89.77
48630;BME280;34426;52.180;4.462;2023-04-09T02:24:59;102658.75;;;7.44;90.07
48630;BME280;34426;52.180;4.462;2023-04-09T02:27:27;102653.16;;;7.44;89.86
48630;BME280;34426;52.180;4.462;2023-04-09T02:29:54;102648.66;;;7.43;90.18
48630;BME280;34426;52.180;4.462;2023-04-09T02:32:21;102642.44;;;7.41;90.35
48630;BME280;34426;52.180;4.462;2023-04-09T02:34:49;102651.19;;;7.38;89.89
48630;BME280;34426;52.180;4.462;2023-04-09T02:37:16;102649.72;;;7.35;90.18
48630;BME280;34426;52.180;4.462;2023-04-09T02:39:45;102649.19;;;7.25;90.19
48630;BME280;34426;52.180;4.462;2023-04-09T02:42:12;102655.75;;;7.17;90.38
48630;BME280;34426;52.180;4.462;2023-04-09T02:44:40;102650.81;;;7.13;90.21
48630;BME280;34426;52.180;4.462;2023-04-09T02:47:07;102646.44;;;7.04;89.97
48630;BME280;34426;52.180;4.462;2023-04-09T02:49:35;102643.00;;;7.01;90.41
48630;BME280;34426;52.180;4.462;2023-04-09T02:52:02;102638.69;;;6.99;90.41
48630;BME280;34426;52.180;4.462;2023-04-09T02:54:29;102636.97;;;6.98;90.28
48630;BME280;34426;52.180;4.462;2023-04-09T02:56:59;102638.44;;;6.94;90.29
48630;BME280;34426;52.180;4.462;2023-04-09T02:59:25;102632.25;;;6.92;90.04
48630;BME280;34426;52.180;4.462;2023-04-09T03:01:52;102626.59;;;6.85;90.52
48630;BME280;34426;52.180;4.462;2023-04-09T03:04:20;102627.88;;;6.83;90.24
48630;BME280;34426;52.180;4.462;2023-04-09T03:06:47;102628.53;;;6.85;90.13
48630;BME280;34426;52.180;4.462;2023-04-09T03:09:14;102632.50;;;6.76;90.33
48630;BME280;34426;52.180;4.462;2023-04-09T03:11:42;102625.88;;;6.77;90.41
48630;BME280;34426;52.180;4.462;2023-04-09T03:14:11;102623.50;;;6.74;90.35
48630;BME280;34426;52.180;4.462;2023-04-09T03:16:38;102627.72;;;6.70;90.19
48630;BME280;34426;52.180;4.462;2023-04-09T03:19:05;102627.34;;;6.73;90.67
48630;BME280;34426;52.180;4.462;2023-04-09T03:21:32;102626.00;;;6.68;90.48
48630;BME280;34426;52.180;4.462;2023-04-09T03:24:00;102620.91;;;6.72;90.57
48630;BME280;34426;52.180;4.462;2023-04-09T03:26:27;102626.00;;;6.68;90.43
48630;BME280;34426;52.180;4.462;2023-04-09T03:28:55;102616.63;;;6.70;90.16
48630;BME280;34426;52.180;4.462;2023-04-09T03:31:24;102613.97;;;6.61;90.29
48630;BME280;34426;52.180;4.462;2023-04-09T03:33:51;102615.41;;;6.57;90.49
48630;BME280;34426;52.180;4.462;2023-04-09T03:36:19;102613.03;;;6.54;90.94
48630;BME280;34426;52.180;4.462;2023-04-09T03:38:46;102608.28;;;6.48;90.45
48630;BME280;34426;52.180;4.462;2023-04-09T03:41:13;102608.91;;;6.50;90.66
48630;BME280;34426;52.180;4.462;2023-04-09T03:43:41;102599.13;;;6.54;91.14
48630;BME280;34426;52.180;4.462;2023-04-09T03:46:11;102601.13;;;6.60;90.88
48630;BME280;34426;52.180;4.462;2023-04-09T03:48:41;102601.78;;;6.62;90.96
48630;BME280;34426;52.180;4.462;2023-04-09T03:51:11;102602.84;;;6.61;90.71
48630;BME280;34426;52.180;4.462;2023-04-09T03:53:39;102605.22;;;6.64;90.74
48630;BME280;34426;52.180;4.462;2023-04-09T03:56:07;102598.22;;;6.68;90.54
48630;BME280;34426;52.180;4.462;2023-04-09T03:58:35;102606.41;;;6.77;90.69
48630;BME280;34426;52.180;4.462;2023-04-09T04:01:03;102603.69;;;6.83;90.62
48630;BME280;34426;52.180;4.462;2023-04-09T04:03:30;102608.47;;;6.89;90.78
48630;BME280;34426;52.180;4.462;2023-04-09T04:06:02;102606.13;;;6.93;90.80
48630;BME280;34426;52.180;4.462;2023-04-09T04:08:29;102607.69;;;7.02;90.82
48630;BME280;34426;52.180;4.462;2023-04-09T04:11:03;102606.22;;;7.06;90.86
48630;BME280;34426;52.180;4.462;2023-04-09T04:13:31;102607.13;;;7.13;90.75
48630;BME280;34426;52.180;4.462;2023-04-09T04:16:01;102602.09;;;7.23;90.74
48630;BME280;34426;52.180;4.462;2023-04-09T04:18:28;102608.50;;;7.24;90.99
48630;BME280;34426;52.180;4.462;2023-04-09T04:20:55;102610.75;;;7.35;91.09
48630;BME280;34426;52.180;4.462;2023-04-09T04:23:24;102602.59;;;7.40;90.81
48630;BME280;34426;52.180;4.462;2023-04-09T04:25:52;102603.91;;;7.44;91.15
48630;BME280;34426;52.180;4.462;2023-04-09T04:28:19;102603.09;;;7.50;90.94
48630;BME280;34426;52.180;4.462;2023-04-09T04:30:46;102603.16;;;7.57;90.96
48630;BME280;34426;52.180;4.462;2023-04-09T04:33:13;102605.38;;;7.68;91.07
48630;BME280;34426;52.180;4.462;2023-04-09T04:35:41;102606.25;;;7.75;91.15
48630;BME280;34426;52.180;4.462;2023-04-09T04:38:08;102597.06;;;7.81;90.88
48630;BME280;34426;52.180;4.462;2023-04-09T04:40:37;102613.16;;;7.86;90.84
48630;BME280;34426;52.180;4.462;2023-04-09T04:43:05;102600.31;;;7.91;91.40
48630;BME280;34426;52.180;4.462;2023-04-09T04:45:32;102600.78;;;8.01;90.87
48630;BME280;34426;52.180;4.462;2023-04-09T04:47:59;102603.78;;;8.00;90.83
48630;BME280;34426;52.180;4.462;2023-04-09T04:50:27;102608.75;;;8.05;90.77
48630;BME280;34426;52.180;4.462;2023-04-09T04:52:54;102612.22;;;8.13;91.09
48630;BME280;34426;52.180;4.462;2023-04-09T04:55:22;102611.59;;;8.18;90.58
48630;BME280;34426;52.180;4.462;2023-04-09T04:57:52;102610.72;;;8.17;90.21
48630;BME280;34426;52.180;4.462;2023-04-09T05:00:20;102613.75;;;8.22;90.73
48630;BME280;34426;52.180;4.462;2023-04-09T05:02:47;102613.28;;;8.25;90.40
48630;BME280;34426;52.180;4.462;2023-04-09T05:05:15;102610.53;;;8.32;91.00
48630;BME280;34426;52.180;4.462;2023-04-09T05:07:42;102622.75;;;8.31;90.03
48630;BME280;34426;52.180;4.462;2023-04-09T05:10:10;102623.66;;;8.38;90.17
48630;BME280;34426;52.180;4.462;2023-04-09T05:12:37;102622.38;;;8.34;90.27
48630;BME280;34426;52.180;4.462;2023-04-09T05:15:07;102618.09;;;8.38;89.74
48630;BME280;34426;52.180;4.462;2023-04-09T05:17:34;102620.47;;;8.41;90.47
48630;BME280;34426;52.180;4.462;2023-04-09T05:20:02;102622.84;;;8.44;89.71
48630;BME280;34426;52.180;4.462;2023-04-09T05:22:29;102620.28;;;8.49;89.99
48630;BME280;34426;52.180;4.462;2023-04-09T05:24:57;102620.69;;;8.46;89.75
48630;BME280;34426;52.180;4.462;2023-04-09T05:27:24;102623.06;;;8.49;90.03
48630;BME280;34426;52.180;4.462;2023-04-09T05:29:52;102614.03;;;8.47;89.68
48630;BME280;34426;52.180;4.462;2023-04-09T05:32:21;102613.41;;;8.45;89.62
48630;BME280;34426;52.180;4.462;2023-04-09T05:34:48;102615.13;;;8.53;89.32
48630;BME280;34426;52.180;4.462;2023-04-09T05:37:21;102625.44;;;8.52;87.96
48630;BME280;34426;52.180;4.462;2023-04-09T05:39:49;102622.66;;;8.59;88.75
48630;BME280;34426;52.180;4.462;2023-04-09T05:42:16;102618.81;;;8.60;88.42
48630;BME280;34426;52.180;4.462;2023-04-09T05:44:43;102628.00;;;8.67;87.63
48630;BME280;34426;52.180;4.462;2023-04-09T05:47:11;102618.38;;;8.70;88.74
48630;BME280;34426;52.180;4.462;2023-04-09T05:49:40;102622.88;;;8.71;88.02
48630;BME280;34426;52.180;4.462;2023-04-09T05:52:08;102615.38;;;8.64;88.39
48630;BME280;34426;52.180;4.462;2023-04-09T05:54:35;102616.88;;;8.74;88.41
48630;BME280;34426;52.180;4.462;2023-04-09T05:57:02;102615.78;;;8.75;88.08
48630;BME280;34426;52.180;4.462;2023-04-09T05:59:30;102628.47;;;8.77;87.91
48630;BME280;34426;52.180;4.462;2023-04-09T06:01:57;102628.47;;;8.77;88.91
48630;BME280;34426;52.180;4.462;2023-04-09T06:04:24;102628.47;;;8.84;87.71
48630;BME280;34426;52.180;4.462;2023-04-09T06:06:54;102628.06;;;8.87;87.64
48630;BME280;34426;52.180;4.462;2023-04-09T06:09:21;102630.84;;;8.87;87.53
48630;BME280;34426;52.180;4.462;2023-04-09T06:11:50;102622.03;;;8.90;86.96
48630;BME280;34426;52.180;4.462;2023-04-09T06:14:18;102624.63;;;8.91;86.90
48630;BME280;34426;52.180;4.462;2023-04-09T06:16:45;102628.50;;;8.97;86.38
48630;BME280;34426;52.180;4.462;2023-04-09T06:19:14;102633.44;;;8.95;86.42
48630;BME280;34426;52.180;4.462;2023-04-09T06:21:42;102631.28;;;8.97;86.52
48630;BME280;34426;52.180;4.462;2023-04-09T06:24:09;102640.94;;;9.01;86.14
48630;BME280;34426;52.180;4.462;2023-04-09T06:26:36;102633.88;;;8.98;87.01
48630;BME280;34426;52.180;4.462;2023-04-09T06:29:06;102637.09;;;9.02;87.36
48630;BME280;34426;52.180;4.462;2023-04-09T06:31:33;102641.38;;;9.05;87.10
48630;BME280;34426;52.180;4.462;2023-04-09T06:34:01;102641.81;;;9.08;86.54
48630;BME280;34426;52.180;4.462;2023-04-09T06:36:28;102646.72;;;9.13;86.09
48630;BME280;34426;52.180;4.462;2023-04-09T06:38:56;102643.94;;;9.13;86.88
48630;BME280;34426;52.180;4.462;2023-04-09T06:41:25;102648.47;;;9.07;86.30
48630;BME280;34426;52.180;4.462;2023-04-09T06:43:53;102646.75;;;9.06;87.16
48630;BME280;34426;52.180;4.462;2023-04-09T06:46:20;102648.69;;;9.06;86.72
48630;BME280;34426;52.180;4.462;2023-04-09T06:48:48;102649.97;;;9.03;86.40
48630;BME280;34426;52.180;4.462;2023-04-09T06:51:15;102646.97;;;9.05;85.44
48630;BME280;34426;52.180;4.462;2023-04-09T06:53:42;102646.97;;;9.05;85.86
48630;BME280;34426;52.180;4.462;2023-04-09T06:56:10;102641.34;;;9.11;86.36
48630;BME280;34426;52.180;4.462;2023-04-09T06:58:42;102637.06;;;9.15;85.19
48630;BME280;34426;52.180;4.462;2023-04-09T07:01:09;102636.41;;;9.20;84.99
48630;BME280;34426;52.180;4.462;2023-04-09T07:03:37;102634.50;;;9.27;85.77
48630;BME280;34426;52.180;4.462;2023-04-09T07:06:04;102632.97;;;9.38;85.48
48630;BME280;34426;52.180;4.462;2023-04-09T07:08:32;102635.56;;;9.46;85.03
48630;BME280;34426;52.180;4.462;2023-04-09T07:10:59;102636.19;;;9.48;85.27
48630;BME280;34426;52.180;4.462;2023-04-09T07:13:26;102638.94;;;9.54;84.99
48630;BME280;34426;52.180;4.462;2023-04-09T07:15:56;102636.41;;;9.53;85.19
48630;BME280;34426;52.180;4.462;2023-04-09T07:18:23;102633.16;;;9.56;84.84
48630;BME280;34426;52.180;4.462;2023-04-09T07:20:53;102633.63;;;9.53;84.30
48630;BME280;34426;52.180;4.462;2023-04-09T07:23:21;102627.13;;;9.59;84.89
48630;BME280;34426;52.180;4.462;2023-04-09T07:25:48;102633.34;;;9.61;83.92
48630;BME280;34426;52.180;4.462;2023-04-09T07:28:15;102631.00;;;9.58;84.36
48630;BME280;34426;52.180;4.462;2023-04-09T07:30:43;102626.69;;;9.62;83.52
48630;BME280;34426;52.180;4.462;2023-04-09T07:33:12;102636.59;;;9.58;83.84
48630;BME280;34426;52.180;4.462;2023-04-09T07:35:39;102632.72;;;9.59;83.13
48630;BME280;34426;52.180;4.462;2023-04-09T07:38:07;102634.00;;;9.63;83.78
48630;BME280;34426;52.180;4.462;2023-04-09T07:40:35;102630.56;;;9.61;83.16
48630;BME280;34426;52.180;4.462;2023-04-09T07:43:02;102644.09;;;9.64;83.08
48630;BME280;34426;52.180;4.462;2023-04-09T07:45:30;102644.53;;;9.61;83.38
48630;BME280;34426;52.180;4.462;2023-04-09T07:47:57;102643.03;;;9.65;83.23
48630;BME280;34426;52.180;4.462;2023-04-09T07:50:27;102651.41;;;9.65;82.87
48630;BME280;34426;52.180;4.462;2023-04-09T07:52:54;102640.22;;;9.72;83.37
48630;BME280;34426;52.180;4.462;2023-04-09T07:55:21;102646.03;;;9.70;82.88
48630;BME280;34426;52.180;4.462;2023-04-09T07:57:49;102635.25;;;9.80;82.80
48630;BME280;34426;52.180;4.462;2023-04-09T08:00:17;102638.28;;;9.72;83.16
48630;BME280;34426;52.180;4.462;2023-04-09T08:02:45;102632.69;;;9.72;82.27
48630;BME280;34426;52.180;4.462;2023-04-09T08:05:12;102633.97;;;9.76;82.54
48630;BME280;34426;52.180;4.462;2023-04-09T08:07:42;102637.41;;;9.78;82.46
48630;BME280;34426;52.180;4.462;2023-04-09T08:10:10;102633.75;;;9.78;81.82
48630;BME280;34426;52.180;4.462;2023-04-09T08:12:37;102639.34;;;9.78;81.77
48630;BME280;34426;52.180;4.462;2023-04-09T08:15:05;102638.50;;;9.77;81.33
48630;BME280;34426;52.180;4.462;2023-04-09T08:17:32;102641.72;;;9.74;82.04
48630;BME280;34426;52.180;4.462;2023-04-09T08:20:00;102640.00;;;9.80;82.45
48630;BME280;34426;52.180;4.462;2023-04-09T08:22:27;102632.47;;;9.80;81.81
48630;BME280;34426;52.180;4.462;2023-04-09T08:24:56;102640.00;;;9.80;82.12
48630;BME280;34426;52.180;4.462;2023-04-09T08:27:26;102641.06;;;9.85;81.77
48630;BME280;34426;52.180;4.462;2023-04-09T08:29:57;102648.56;;;9.85;81.88
48630;BME280;34426;52.180;4.462;2023-04-09T08:32:24;102638.69;;;9.82;81.38
48630;BME280;34426;52.180;4.462;2023-04-09T08:34:51;102641.28;;;9.84;81.03
48630;BME280;34426;52.180;4.462;2023-04-09T08:37:19;102643.00;;;9.78;81.27
48630;BME280;34426;52.180;4.462;2023-04-09T08:39:46;102649.00;;;9.88;81.70
48630;BME280;34426;52.180;4.462;2023-04-09T08:42:14;102644.72;;;9.86;80.66
48630;BME280;34426;52.180;4.462;2023-04-09T08:44:42;102644.94;;;9.84;81.48
48630;BME280;34426;52.180;4.462;2023-04-09T08:47:10;102647.28;;;9.87;80.74
48630;BME280;34426;52.180;4.462;2023-04-09T08:49:39;102653.50;;;9.89;80.43
48630;BME280;34426;52.180;4.462;2023-04-09T08:52:06;102643.63;;;9.87;79.97
48630;BME280;34426;52.180;4.462;2023-04-09T08:54:34;102642.34;;;9.89;80.56
48630;BME280;34426;52.180;4.462;2023-04-09T08:57:04;102636.53;;;9.84;80.89
48630;BME280;34426;52.180;4.462;2023-04-09T08:59:34;102638.25;;;9.85;81.26
48630;BME280;34426;52.180;4.462;2023-04-09T09:02:08;102639.34;;;9.84;80.82
48630;BME280;34426;52.180;4.462;2023-04-09T09:04:44;102639.53;;;9.89;79.99
48630;BME280;34426;52.180;4.462;2023-04-09T09:07:12;102633.94;;;9.89;80.40
48630;BME280;34426;52.180;4.462;2023-04-09T09:09:51;102644.00;;;9.97;80.51
48630;BME280;34426;52.180;4.462;2023-04-09T09:12:33;102642.97;;;9.91;80.21
48630;BME280;34426;52.180;4.462;2023-04-09T09:15:04;102644.41;;;10.00;79.43
48630;BME280;34426;52.180;4.462;2023-04-09T09:17:33;102649.38;;;9.98;79.88
48630;BME280;34426;52.180;4.462;2023-04-09T09:20:18;102643.34;;;10.01;79.42
48630;BME280;34426;52.180;4.462;2023-04-09T09:22:49;102642.91;;;10.05;80.05
48630;BME280;34426;52.180;4.462;2023-04-09T09:25:17;102644.63;;;10.06;79.72
48630;BME280;34426;52.180;4.462;2023-04-09T09:27:45;102637.72;;;10.08;79.66
48630;BME280;34426;52.180;4.462;2023-04-09T09:30:23;102636.44;;;10.11;79.25
48630;BME280;34426;52.180;4.462;2023-04-09T09:33:03;102625.88;;;10.13;78.57
48630;BME280;34426;52.180;4.462;2023-04-09T09:35:30;102632.34;;;10.13;78.64
48630;BME280;34426;52.180;4.462;2023-04-09T09:38:12;102637.06;;;10.13;78.54
48630;BME280;34426;52.180;4.462;2023-04-09T09:40:42;102631.69;;;10.24;78.03
48630;BME280;34426;52.180;4.462;2023-04-09T09:43:10;102637.50;;;10.23;77.48
48630;BME280;34426;52.180;4.462;2023-04-09T09:45:40;102634.25;;;10.26;77.67
48630;BME280;34426;52.180;4.462;2023-04-09T09:48:08;102623.25;;;10.31;78.44
48630;BME280;34426;52.180;4.462;2023-04-09T09:50:37;102616.56;;;10.39;76.64
48630;BME280;34426;52.180;4.462;2023-04-09T09:53:05;102619.16;;;10.33;77.43
48630;BME280;34426;52.180;4.462;2023-04-09T09:55:36;102616.03;;;10.48;76.87
48630;BME280;34426;52.180;4.462;2023-04-09T09:58:15;102607.84;;;10.53;76.65
48630;BME280;34426;52.180;4.462;2023-04-09T10:00:46;102609.81;;;10.46;76.80
48630;BME280;34426;52.180;4.462;2023-04-09T10:03:24;102601.41;;;10.46;76.48
48630;BME280;34426;52.180;4.462;2023-04-09T10:05:52;102602.69;;;10.50;76.63
48630;BME280;34426;52.180;4.462;2023-04-09T10:08:21;102600.06;;;10.55;76.43
48630;BME280;34426;52.180;4.462;2023-04-09T10:10:49;102601.75;;;10.63;75.55
48630;BME280;34426;52.180;4.462;2023-04-09T10:13:20;102591.16;;;10.72;75.29
48630;BME280;34426;52.180;4.462;2023-04-09T10:15:52;102591.81;;;10.67;74.11
48630;BME280;34426;52.180;4.462;2023-04-09T10:18:20;102598.47;;;10.73;75.35
48630;BME280;34426;52.180;4.462;2023-04-09T10:20:53;102592.69;;;10.68;74.41
48630;BME280;34426;52.180;4.462;2023-04-09T10:23:31;102607.34;;;10.63;74.36
48630;BME280;34426;52.180;4.462;2023-04-09T10:26:00;102590.88;;;10.80;74.13
48630;BME280;34426;52.180;4.462;2023-04-09T10:28:28;102587.78;;;10.88;73.80
48630;BME280;34426;52.180;4.462;2023-04-09T10:30:57;102590.06;;;10.97;73.52
48630;BME280;34426;52.180;4.462;2023-04-09T10:33:26;102587.66;;;11.01;74.18
48630;BME280;34426;52.180;4.462;2023-04-09T10:35:55;102586.75;;;11.07;72.93
48630;BME280;34426;52.180;4.462;2023-04-09T10:38:36;102581.38;;;11.06;73.15
48630;BME280;34426;52.180;4.462;2023-04-09T10:41:20;102574.81;;;11.18;72.86
48630;BME280;34426;52.180;4.462;2023-04-09T10:43:49;102574.03;;;11.29;71.93
48630;BME280;34426;52.180;4.462;2023-04-09T10:46:28;102569.31;;;11.48;70.40
48630;BME280;34426;52.180;4.462;2023-04-09T10:49:16;102563.03;;;11.53;70.67
48630;BME280;34426;52.180;4.462;2023-04-09T10:51:51;102569.69;;;11.70;70.51
48630;BME280;34426;52.180;4.462;2023-04-09T10:54:37;102565.69;;;11.84;70.79
48630;BME280;34426;52.180;4.462;2023-04-09T10:57:14;102564.59;;;11.85;70.24
48630;BME280;34426;52.180;4.462;2023-04-09T10:59:43;102554.16;;;11.92;69.71
48630;BME280;34426;52.180;4.462;2023-04-09T11:05:30;102559.63;;;11.87;68.40
48630;BME280;34426;52.180;4.462;2023-04-09T11:08:05;102554.63;;;12.08;68.82
48630;BME280;34426;52.180;4.462;2023-04-09T11:10:33;102544.38;;;12.43;68.37
48630;BME280;34426;52.180;4.462;2023-04-09T11:13:00;102536.09;;;12.60;67.79
48630;BME280;34426;52.180;4.462;2023-04-09T11:15:28;102541.81;;;12.95;65.96
48630;BME280;34426;52.180;4.462;2023-04-09T11:17:57;102536.78;;;13.09;65.24
48630;BME280;34426;52.180;4.462;2023-04-09T11:20:25;102543.19;;;13.27;64.84
48630;BME280;34426;52.180;4.462;2023-04-09T11:22:53;102539.53;;;13.39;65.36
48630;BME280;34426;52.180;4.462;2023-04-09T11:25:23;102533.72;;;13.57;63.61
48630;BME280;34426;52.180;4.462;2023-04-09T11:27:52;102530.78;;;13.75;62.59
48630;BME280;34426;52.180;4.462;2023-04-09T11:30:19;102522.09;;;13.65;62.75
48630;BME280;34426;52.180;4.462;2023-04-09T11:32:47;102531.50;;;13.71;62.06
48630;BME280;34426;52.180;4.462;2023-04-09T11:35:18;102530.72;;;13.87;61.28
48630;BME280;34426;52.180;4.462;2023-04-09T11:37:46;102518.69;;;14.03;61.25
48630;BME280;34426;52.180;4.462;2023-04-09T11:40:16;102516.03;;;14.25;60.37
48630;BME280;34426;52.180;4.462;2023-04-09T11:42:45;102518.63;;;14.43;59.55
48630;BME280;34426;52.180;4.462;2023-04-09T11:45:13;102508.69;;;14.24;58.90
48630;BME280;34426;52.180;4.462;2023-04-09T11:47:41;102515.22;;;14.13;61.06
48630;BME280;34426;52.180;4.462;2023-04-09T11:50:10;102512.50;;;14.46;59.76
48630;BME280;34426;52.180;4.462;2023-04-09T11:52:40;102514.75;;;14.61;58.77
48630;BME280;34426;52.180;4.462;2023-04-09T11:55:17;102503.50;;;14.61;58.64
48630;BME280;34426;52.180;4.462;2023-04-09T11:57:49;102498.34;;;14.58;61.02
48630;BME280;34426;52.180;4.462;2023-04-09T12:00:18;102501.63;;;14.67;60.51
48630;BME280;34426;52.180;4.462;2023-04-09T12:02:46;102505.09;;;14.90;60.52
48630;BME280;34426;52.180;4.462;2023-04-09T12:05:21;102504.00;;;15.08;57.83
48630;BME280;34426;52.180;4.462;2023-04-09T12:07:57;102502.41;;;15.17;59.82
48630;BME280;34426;52.180;4.462;2023-04-09T12:10:27;102498.94;;;15.49;58.72
48630;BME280;34426;52.180;4.462;2023-04-09T12:12:59;102503.25;;;15.73;57.65
48630;BME280;34426;52.180;4.462;2023-04-09T12:15:31;102495.03;;;15.93;57.24
48630;BME280;34426;52.180;4.462;2023-04-09T12:17:59;102497.94;;;15.99;57.51
48630;BME280;34426;52.180;4.462;2023-04-09T12:20:30;102506.59;;;15.70;57.37
48630;BME280;34426;52.180;4.462;2023-04-09T12:23:01;102509.69;;;15.52;57.50
48630;BME280;34426;52.180;4.462;2023-04-09T12:25:29;102508.19;;;15.44;57.90
48630;BME280;34426;52.180;4.462;2023-04-09T12:27:56;102504.09;;;15.35;59.15
48630;BME280;34426;52.180;4.462;2023-04-09T12:30:24;102509.41;;;15.31;59.20
48630;BME280;34426;52.180;4.462;2023-04-09T12:32:51;102512.63;;;15.57;59.05
48630;BME280;34426;52.180;4.462;2023-04-09T12:35:19;102506.66;;;15.37;58.38
48630;BME280;34426;52.180;4.462;2023-04-09T12:37:47;102504.75;;;15.59;57.87
48630;BME280;34426;52.180;4.462;2023-04-09T12:40:18;102502.91;;;15.91;57.31
48630;BME280;34426;52.180;4.462;2023-04-09T12:42:46;102505.16;;;16.16;56.88
48630;BME280;34426;52.180;4.462;2023-04-09T12:45:14;102487.09;;;16.17;56.07
48630;BME280;34426;52.180;4.462;2023-04-09T12:47:41;102493.03;;;16.43;55.47
48630;BME280;34426;52.180;4.462;2023-04-09T12:50:12;102487.53;;;16.90;54.37
48630;BME280;34426;52.180;4.462;2023-04-09T12:52:40;102486.56;;;16.47;54.93
48630;BME280;34426;52.180;4.462;2023-04-09T12:55:08;102487.50;;;16.58;55.62
48630;BME280;34426;52.180;4.462;2023-04-09T12:57:41;102489.97;;;16.49;55.19
48630;BME280;34426;52.180;4.462;2023-04-09T13:00:10;102487.97;;;16.45;55.27
48630;BME280;34426;52.180;4.462;2023-04-09T13:02:37;102488.09;;;16.87;54.61
48630;BME280;34426;52.180;4.462;2023-04-09T13:05:05;102475.00;;;16.76;54.07
48630;BME280;34426;52.180;4.462;2023-04-09T13:07:32;102475.16;;;17.01;53.71
48630;BME280;34426;52.180;4.462;2023-04-09T13:10:03;102480.19;;;16.62;54.51